sensor_id;sensor_type;location;lat;lon;timestamp;temperature;humidity
20291;DHT22;10304;51.074;13.754;2023-05-20T00:00:00;17.00;99.90
20291;DHT22;10304;51.074;13.754;2023-05-20T00:02:27;16.90;99.90
20291;DHT22;10304;51.074;13.754;2023-05-20T00:04:54;16.90;99.90
20291;DHT22;10304;51.074;13.754;2023-05-20T00:07:21;16.80;99.90
20291;DHT22;10304;51.074;13.754;2023-05-20T00:09:48;16.70;99.90
20291;DHT22;10304;51.074;13.754;2023-05-20T00:12:15;16.70;99.90
20291;DHT22;10304;51.074;13.754;2023-05-20T00:14:42;16.70;99.90
20291;DHT22;10304;51.074;13.754;2023-05-20T00:17:08;16.70;99.90
20291;DHT22;10304;51.074;13.754;2023-05-20T00:19:35;16.60;99.90
20291;DHT22;10304;51.074;13.754;2023-05-20T00:22:02;16.60;99.90
20291;DHT22;10304;51.074;13.754;2023-05-20T00:24:29;16.60;99.90
20291;DHT22;10304;51.074;13.754;2023-05-20T00:26:55;16.60;99.90
20291;DHT22;10304;51.074;13.754;2023-05-20T00:29:22;16.50;99.90
20291;DHT22;10304;51.074;13.754;2023-05-20T00:31:49;16.50;99.90
20291;DHT22;10304;51.074;13.754;2023-05-20T00:34:16;16.50;99.90
20291;DHT22;10304;51.074;13.754;2023-05-20T00:36:42;16.50;99.90
20291;DHT22;10304;51.074;13.754;2023-05-20T00:39:09;16.50;99.90
20291;DHT22;10304;51.074;13.754;2023-05-20T00:41:36;16.40;99.90
20291;DHT22;10304;51.074;13.754;2023-05-20T00:44:03;16.40;99.90
20291;DHT22;10304;51.074;13.754;2023-05-20T00:46:30;16.40;99.90
20291;DHT22;10304;51.074;13.754;2023-05-20T00:48:57;16.50;99.90
20291;DHT22;10304;51.074;13.754;2023-05-20T00:51:24;16.50;99.90
20291;DHT22;10304;51.074;13.754;2023-05-20T00:53:52;16.40;99.90
20291;DHT22;10304;51.074;13.754;2023-05-20T00:56:19;16.40;1.00
20291;DHT22;10304;51.074;13.754;2023-05-20T00:58:47;16.40;1.00
20291;DHT22;10304;51.074;13.754;2023-05-20T01:01:13;16.40;1.00
20291;DHT22;10304;51.074;13.754;2023-05-20T01:03:40;16.40;1.00
20291;DHT22;10304;51.074;13.754;2023-05-20T01:06:07;16.30;1.00
20291;DHT22;10304;51.074;13.754;2023-05-20T01:08:34;16.30;1.00
20291;DHT22;10304;51.074;13.754;2023-05-20T01:11:13;16.20;1.00
20291;DHT22;10304;51.074;13.754;2023-05-20T01:13:44;16.20;1.00
20291;DHT22;10304;51.074;13.754;2023-05-20T01:16:11;16.20;1.00
20291;DHT22;10304;51.074;13.754;2023-05-20T01:18:41;16.20;1.00
20291;DHT22;10304;51.074;13.754;2023-05-20T01:21:11;16.20;1.00
20291;DHT22;10304;51.074;13.754;2023-05-20T01:23:40;16.10;1.00
20291;DHT22;10304;51.074;13.754;2023-05-20T01:26:08;16.10;1.00
20291;DHT22;10304;51.074;13.754;2023-05-20T01:28:40;16.10;1.00
20291;DHT22;10304;51.074;13.754;2023-05-20T01:31:17;16.10;1.00
20291;DHT22;10304;51.074;13.754;2023-05-20T01:33:50;16.10;1.00
20291;DHT22;10304;51.074;13.754;2023-05-20T01:36:19;16.10;1.00
20291;DHT22;10304;51.074;13.754;2023-05-20T01:38:47;16.00;1.00
20291;DHT22;10304;51.074;13.754;2023-05-20T01:41:14;15.90;1.00
20291;DHT22;10304;51.074;13.754;2023-05-20T01:43:43;15.90;1.00
20291;DHT22;10304;51.074;13.754;2023-05-20T01:46:10;15.80;1.00
20291;DHT22;10304;51.074;13.754;2023-05-20T01:48:36;15.80;1.00
20291;DHT22;10304;51.074;13.754;2023-05-20T01:51:03;15.90;1.00
20291;DHT22;10304;51.074;13.754;2023-05-20T01:53:30;15.90;1.00
20291;DHT22;10304;51.074;13.754;2023-05-20T01:55:57;15.90;1.00
20291;DHT22;10304;51.074;13.754;2023-05-20T01:58:24;15.80;1.00
20291;DHT22;10304;51.074;13.754;2023-05-20T02:00:50;15.80;1.00
20291;DHT22;10304;51.074;13.754;2023-05-20T02:03:17;15.90;1.00
20291;DHT22;10304;51.074;13.754;2023-05-20T02:05:44;15.80;1.00
20291;DHT22;10304;51.074;13.754;2023-05-20T02:08:11;15.80;1.00
20291;DHT22;10304;51.074;13.754;2023-05-20T02:10:37;15.80;1.00
20291;DHT22;10304;51.074;13.754;2023-05-20T02:13:04;15.80;1.00
20291;DHT22;10304;51.074;13.754;2023-05-20T02:15:31;15.80;1.00
20291;DHT22;10304;51.074;13.754;2023-05-20T02:17:58;15.80;1.00
20291;DHT22;10304;51.074;13.754;2023-05-20T02:20:25;15.80;18.30
20291;DHT22;10304;51.074;13.754;2023-05-20T02:22:52;15.80;25.80
20291;DHT22;10304;51.074;13.754;2023-05-20T02:25:19;15.80;11.60
20291;DHT22;10304;51.074;13.754;2023-05-20T02:27:45;15.80;8.40
20291;DHT22;10304;51.074;13.754;2023-05-20T02:30:13;15.80;36.80
20291;DHT22;10304;51.074;13.754;2023-05-20T02:32:40;15.80;87.30
20291;DHT22;10304;51.074;13.754;2023-05-20T02:35:07;15.80;99.90
20291;DHT22;10304;51.074;13.754;2023-05-20T02:37:33;15.80;99.90
20291;DHT22;10304;51.074;13.754;2023-05-20T02:40:00;15.90;99.90
20291;DHT22;10304;51.074;13.754;2023-05-20T02:42:27;15.80;99.90
20291;DHT22;10304;51.074;13.754;2023-05-20T02:44:54;15.80;99.90
20291;DHT22;10304;51.074;13.754;2023-05-20T02:47:24;15.80;99.90
20291;DHT22;10304;51.074;13.754;2023-05-20T02:49:51;15.80;99.90
20291;DHT22;10304;51.074;13.754;2023-05-20T02:52:18;15.80;99.90
20291;DHT22;10304;51.074;13.754;2023-05-20T02:54:45;15.80;99.90
20291;DHT22;10304;51.074;13.754;2023-05-20T02:57:12;15.80;99.90
20291;DHT22;10304;51.074;13.754;2023-05-20T02:59:38;15.80;99.90
20291;DHT22;10304;51.074;13.754;2023-05-20T03:02:06;15.80;99.90
20291;DHT22;10304;51.074;13.754;2023-05-20T03:04:32;15.70;99.90
20291;DHT22;10304;51.074;13.754;2023-05-20T03:06:59;15.70;99.90
20291;DHT22;10304;51.074;13.754;2023-05-20T03:09:26;15.70;99.90
20291;DHT22;10304;51.074;13.754;2023-05-20T03:11:53;15.60;99.90
20291;DHT22;10304;51.074;13.754;2023-05-20T03:14:20;15.60;99.90
20291;DHT22;10304;51.074;13.754;2023-05-20T03:16:47;15.50;99.90
20291;DHT22;10304;51.074;13.754;2023-05-20T03:19:13;15.50;99.90
20291;DHT22;10304;51.074;13.754;2023-05-20T03:21:41;15.50;99.90
20291;DHT22;10304;51.074;13.754;2023-05-20T03:24:09;15.40;99.90
20291;DHT22;10304;51.074;13.754;2023-05-20T03:26:36;15.40;99.90
20291;DHT22;10304;51.074;13.754;2023-05-20T03:29:04;15.30;1.00
20291;DHT22;10304;51.074;13.754;2023-05-20T03:31:31;15.30;1.00
20291;DHT22;10304;51.074;13.754;2023-05-20T03:33:58;15.30;1.00
20291;DHT22;10304;51.074;13.754;2023-05-20T03:36:24;15.40;1.00
20291;DHT22;10304;51.074;13.754;2023-05-20T03:38:51;15.30;1.00
20291;DHT22;10304;51.074;13.754;2023-05-20T03:41:18;15.30;1.00
20291;DHT22;10304;51.074;13.754;2023-05-20T03:43:44;15.30;1.00
20291;DHT22;10304;51.074;13.754;2023-05-20T03:46:11;15.20;1.00
20291;DHT22;10304;51.074;13.754;2023-05-20T03:48:38;15.30;1.00
20291;DHT22;10304;51.074;13.754;2023-05-20T03:51:05;15.30;1.00
20291;DHT22;10304;51.074;13.754;2023-05-20T03:53:32;15.30;1.00
20291;DHT22;10304;51.074;13.754;2023-05-20T03:55:58;15.30;1.00
20291;DHT22;10304;51.074;13.754;2023-05-20T03:58:25;15.30;1.00
20291;DHT22;10304;51.074;13.754;2023-05-20T04:00:55;15.40;1.00
20291;DHT22;10304;51.074;13.754;2023-05-20T04:03:21;15.40;1.00
20291;DHT22;10304;51.074;13.754;2023-05-20T04:05:49;15.40;1.00
20291;DHT22;10304;51.074;13.754;2023-05-20T04:08:16;15.40;1.00
20291;DHT22;10304;51.074;13.754;2023-05-20T04:10:44;15.40;1.00
20291;DHT22;10304;51.074;13.754;2023-05-20T04:13:11;15.50;1.00
20291;DHT22;10304;51.074;13.754;2023-05-20T04:15:38;15.50;1.00
20291;DHT22;10304;51.074;13.754;2023-05-20T04:18:05;15.50;1.00
20291;DHT22;10304;51.074;13.754;2023-05-20T04:20:32;15.60;1.00
20291;DHT22;10304;51.074;13.754;2023-05-20T04:22:58;15.60;1.00
20291;DHT22;10304;51.074;13.754;2023-05-20T04:25:25;15.60;1.00
20291;DHT22;10304;51.074;13.754;2023-05-20T04:27:52;15.60;1.00
20291;DHT22;10304;51.074;13.754;2023-05-20T04:30:19;15.70;1.00
20291;DHT22;10304;51.074;13.754;2023-05-20T04:32:48;15.70;1.00
20291;DHT22;10304;51.074;13.754;2023-05-20T04:35:16;15.70;1.00
20291;DHT22;10304;51.074;13.754;2023-05-20T04:37:43;15.70;1.00
20291;DHT22;10304;51.074;13.754;2023-05-20T04:40:13;15.70;1.00
20291;DHT22;10304;51.074;13.754;2023-05-20T04:42:40;15.80;1.00
20291;DHT22;10304;51.074;13.754;2023-05-20T04:45:07;15.80;1.00
20291;DHT22;10304;51.074;13.754;2023-05-20T04:47:34;15.80;1.00
20291;DHT22;10304;51.074;13.754;2023-05-20T04:50:08;15.80;1.00
20291;DHT22;10304;51.074;13.754;2023-05-20T04:52:39;15.90;1.00
20291;DHT22;10304;51.074;13.754;2023-05-20T04:55:08;15.90;1.00
20291;DHT22;10304;51.074;13.754;2023-05-20T04:57:39;16.00;1.00
20291;DHT22;10304;51.074;13.754;2023-05-20T05:00:09;16.00;15.40
20291;DHT22;10304;51.074;13.754;2023-05-20T05:02:36;16.10;91.70
20291;DHT22;10304;51.074;13.754;2023-05-20T05:05:03;16.10;1.00
20291;DHT22;10304;51.074;13.754;2023-05-20T05:07:30;16.10;1.00
20291;DHT22;10304;51.074;13.754;2023-05-20T05:09:57;16.20;1.00
20291;DHT22;10304;51.074;13.754;2023-05-20T05:12:24;16.20;1.00
20291;DHT22;10304;51.074;13.754;2023-05-20T05:14:51;16.20;1.00
20291;DHT22;10304;51.074;13.754;2023-05-20T05:17:17;16.30;1.00
20291;DHT22;10304;51.074;13.754;2023-05-20T05:19:44;16.30;1.00
20291;DHT22;10304;51.074;13.754;2023-05-20T05:22:11;16.40;1.00
20291;DHT22;10304;51.074;13.754;2023-05-20T05:24:37;16.40;1.00
20291;DHT22;10304;51.074;13.754;2023-05-20T05:27:04;16.50;1.00
20291;DHT22;10304;51.074;13.754;2023-05-20T05:29:31;16.50;1.00
20291;DHT22;10304;51.074;13.754;2023-05-20T05:31:58;16.50;1.00
20291;DHT22;10304;51.074;13.754;2023-05-20T05:34:24;16.60;1.00
20291;DHT22;10304;51.074;13.754;2023-05-20T05:36:51;16.70;1.00
20291;DHT22;10304;51.074;13.754;2023-05-20T05:39:18;16.70;1.00
20291;DHT22;10304;51.074;13.754;2023-05-20T05:41:45;16.80;1.00
20291;DHT22;10304;51.074;13.754;2023-05-20T05:44:11;16.80;1.00
20291;DHT22;10304;51.074;13.754;2023-05-20T05:46:38;16.80;1.00
20291;DHT22;10304;51.074;13.754;2023-05-20T05:49:05;16.90;1.00
20291;DHT22;10304;51.074;13.754;2023-05-20T05:51:31;16.90;1.00
20291;DHT22;10304;51.074;13.754;2023-05-20T05:53:58;17.00;1.00
20291;DHT22;10304;51.074;13.754;2023-05-20T05:56:25;17.00;1.00
20291;DHT22;10304;51.074;13.754;2023-05-20T05:58:51;17.10;99.90
20291;DHT22;10304;51.074;13.754;2023-05-20T06:01:18;17.00;99.90
20291;DHT22;10304;51.074;13.754;2023-05-20T06:03:45;17.00;99.90
20291;DHT22;10304;51.074;13.754;2023-05-20T06:06:12;17.10;99.90
20291;DHT22;10304;51.074;13.754;2023-05-20T06:08:39;17.10;99.90
20291;DHT22;10304;51.074;13.754;2023-05-20T06:11:06;17.20;99.90
20291;DHT22;10304;51.074;13.754;2023-05-20T06:13:33;17.20;99.90
20291;DHT22;10304;51.074;13.754;2023-05-20T06:15:59;17.30;99.90
20291;DHT22;10304;51.074;13.754;2023-05-20T06:18:26;17.30;99.90
20291;DHT22;10304;51.074;13.754;2023-05-20T06:20:55;17.40;99.90
20291;DHT22;10304;51.074;13.754;2023-05-20T06:23:22;17.50;99.90
20291;DHT22;10304;51.074;13.754;2023-05-20T06:25:49;17.60;99.90
20291;DHT22;10304;51.074;13.754;2023-05-20T06:28:16;17.70;99.90
20291;DHT22;10304;51.074;13.754;2023-05-20T06:30:43;17.80;34.10
20291;DHT22;10304;51.074;13.754;2023-05-20T06:33:10;17.80;1.00
20291;DHT22;10304;51.074;13.754;2023-05-20T06:35:37;17.80;1.00
20291;DHT22;10304;51.074;13.754;2023-05-20T06:38:04;17.90;1.00
20291;DHT22;10304;51.074;13.754;2023-05-20T06:40:31;17.90;1.00
20291;DHT22;10304;51.074;13.754;2023-05-20T06:42:58;18.00;1.00
20291;DHT22;10304;51.074;13.754;2023-05-20T06:45:24;18.00;1.00
20291;DHT22;10304;51.074;13.754;2023-05-20T06:47:51;18.00;1.00
20291;DHT22;10304;51.074;13.754;2023-05-20T06:50:19;18.10;1.00
20291;DHT22;10304;51.074;13.754;2023-05-20T06:52:46;18.10;1.00
20291;DHT22;10304;51.074;13.754;2023-05-20T06:55:13;18.10;1.00
20291;DHT22;10304;51.074;13.754;2023-05-20T06:57:40;18.20;1.00
20291;DHT22;10304;51.074;13.754;2023-05-20T07:00:07;18.20;1.00
20291;DHT22;10304;51.074;13.754;2023-05-20T07:02:34;18.30;1.00
20291;DHT22;10304;51.074;13.754;2023-05-20T07:05:01;18.40;1.00
20291;DHT22;10304;51.074;13.754;2023-05-20T07:07:28;18.50;1.00
20291;DHT22;10304;51.074;13.754;2023-05-20T07:09:56;18.60;1.00
20291;DHT22;10304;51.074;13.754;2023-05-20T07:12:22;18.60;1.00
20291;DHT22;10304;51.074;13.754;2023-05-20T07:14:49;18.70;1.00
20291;DHT22;10304;51.074;13.754;2023-05-20T07:17:17;18.80;1.00
20291;DHT22;10304;51.074;13.754;2023-05-20T07:19:43;18.80;1.00
20291;DHT22;10304;51.074;13.754;2023-05-20T07:22:10;18.90;1.00
20291;DHT22;10304;51.074;13.754;2023-05-20T07:24:37;19.00;1.00
20291;DHT22;10304;51.074;13.754;2023-05-20T07:27:04;19.00;1.00
20291;DHT22;10304;51.074;13.754;2023-05-20T07:29:31;19.00;99.90
20291;DHT22;10304;51.074;13.754;2023-05-20T07:31:57;19.10;99.90
20291;DHT22;10304;51.074;13.754;2023-05-20T07:34:24;19.20;99.90
20291;DHT22;10304;51.074;13.754;2023-05-20T07:36:51;19.30;99.90
20291;DHT22;10304;51.074;13.754;2023-05-20T07:39:19;19.40;99.90
20291;DHT22;10304;51.074;13.754;2023-05-20T07:41:45;19.50;99.90
20291;DHT22;10304;51.074;13.754;2023-05-20T07:44:12;19.60;99.90
20291;DHT22;10304;51.074;13.754;2023-05-20T07:46:39;19.70;99.90
20291;DHT22;10304;51.074;13.754;2023-05-20T07:49:07;19.80;99.90
20291;DHT22;10304;51.074;13.754;2023-05-20T07:51:34;19.90;99.90
20291;DHT22;10304;51.074;13.754;2023-05-20T07:54:01;20.00;99.90
20291;DHT22;10304;51.074;13.754;2023-05-20T07:56:28;20.10;99.90
20291;DHT22;10304;51.074;13.754;2023-05-20T07:58:56;20.20;99.90
20291;DHT22;10304;51.074;13.754;2023-05-20T08:01:26;20.30;99.90
20291;DHT22;10304;51.074;13.754;2023-05-20T08:03:53;20.30;99.90
20291;DHT22;10304;51.074;13.754;2023-05-20T08:06:20;20.40;99.90
20291;DHT22;10304;51.074;13.754;2023-05-20T08:08:47;20.50;95.10
20291;DHT22;10304;51.074;13.754;2023-05-20T08:11:14;20.60;96.30
20291;DHT22;10304;51.074;13.754;2023-05-20T08:13:40;20.70;59.40
20291;DHT22;10304;51.074;13.754;2023-05-20T08:16:09;20.80;72.50
20291;DHT22;10304;51.074;13.754;2023-05-20T08:18:35;20.80;86.40
20291;DHT22;10304;51.074;13.754;2023-05-20T08:21:05;20.90;90.40
20291;DHT22;10304;51.074;13.754;2023-05-20T08:23:35;21.10;23.10
20291;DHT22;10304;51.074;13.754;2023-05-20T08:26:06;21.10;26.70
20291;DHT22;10304;51.074;13.754;2023-05-20T08:28:33;21.30;17.40
20291;DHT22;10304;51.074;13.754;2023-05-20T08:31:03;21.40;1.00
20291;DHT22;10304;51.074;13.754;2023-05-20T08:33:30;21.50;1.00
20291;DHT22;10304;51.074;13.754;2023-05-20T08:35:56;21.60;1.00
20291;DHT22;10304;51.074;13.754;2023-05-20T08:38:24;21.70;1.00
20291;DHT22;10304;51.074;13.754;2023-05-20T08:40:55;21.90;1.00
20291;DHT22;10304;51.074;13.754;2023-05-20T08:43:23;22.10;1.00
20291;DHT22;10304;51.074;13.754;2023-05-20T08:45:50;22.20;1.00
20291;DHT22;10304;51.074;13.754;2023-05-20T08:48:18;22.20;1.00
20291;DHT22;10304;51.074;13.754;2023-05-20T08:50:50;22.40;1.00
20291;DHT22;10304;51.074;13.754;2023-05-20T08:53:19;22.50;1.00
20291;DHT22;10304;51.074;13.754;2023-05-20T08:55:59;22.60;1.00
20291;DHT22;10304;51.074;13.754;2023-05-20T08:58:29;22.70;1.00
20291;DHT22;10304;51.074;13.754;2023-05-20T09:00:56;22.80;1.00
20291;DHT22;10304;51.074;13.754;2023-05-20T09:03:24;22.80;1.00
20291;DHT22;10304;51.074;13.754;2023-05-20T09:05:52;22.90;1.00
20291;DHT22;10304;51.074;13.754;2023-05-20T09:08:23;22.90;1.00
20291;DHT22;10304;51.074;13.754;2023-05-20T09:10:52;23.00;1.00
20291;DHT22;10304;51.074;13.754;2023-05-20T09:13:20;23.00;1.00
20291;DHT22;10304;51.074;13.754;2023-05-20T09:15:49;23.20;1.00
20291;DHT22;10304;51.074;13.754;2023-05-20T09:18:16;23.20;1.00
20291;DHT22;10304;51.074;13.754;2023-05-20T09:20:46;23.30;1.00
20291;DHT22;10304;51.074;13.754;2023-05-20T09:23:13;23.40;1.00
20291;DHT22;10304;51.074;13.754;2023-05-20T09:25:40;23.50;1.00
20291;DHT22;10304;51.074;13.754;2023-05-20T09:28:07;23.60;1.00
20291;DHT22;10304;51.074;13.754;2023-05-20T09:30:34;23.70;1.00
20291;DHT22;10304;51.074;13.754;2023-05-20T09:33:03;23.80;1.00
20291;DHT22;10304;51.074;13.754;2023-05-20T09:35:34;23.90;1.00
20291;DHT22;10304;51.074;13.754;2023-05-20T09:38:04;24.00;1.00
20291;DHT22;10304;51.074;13.754;2023-05-20T09:40:33;24.00;1.00
20291;DHT22;10304;51.074;13.754;2023-05-20T09:43:06;24.20;1.00
20291;DHT22;10304;51.074;13.754;2023-05-20T09:45:34;24.30;1.00
20291;DHT22;10304;51.074;13.754;2023-05-20T09:48:02;24.40;1.00
20291;DHT22;10304;51.074;13.754;2023-05-20T09:50:30;24.60;1.00
20291;DHT22;10304;51.074;13.754;2023-05-20T09:53:01;24.80;1.00
20291;DHT22;10304;51.074;13.754;2023-05-20T09:55:29;24.90;1.00
20291;DHT22;10304;51.074;13.754;2023-05-20T09:57:59;25.00;1.00
20291;DHT22;10304;51.074;13.754;2023-05-20T10:00:27;25.10;1.00
20291;DHT22;10304;51.074;13.754;2023-05-20T10:02:54;25.30;1.00
20291;DHT22;10304;51.074;13.754;2023-05-20T10:05:40;25.40;1.00
20291;DHT22;10304;51.074;13.754;2023-05-20T10:17:05;26.00;1.00
20291;DHT22;10304;51.074;13.754;2023-05-20T10:19:35;26.20;1.00
20291;DHT22;10304;51.074;13.754;2023-05-20T10:22:03;26.40;1.00
20291;DHT22;10304;51.074;13.754;2023-05-20T10:24:39;26.60;1.00
20291;DHT22;10304;51.074;13.754;2023-05-20T10:27:13;26.70;1.00
20291;DHT22;10304;51.074;13.754;2023-05-20T10:29:51;26.90;1.00
20291;DHT22;10304;51.074;13.754;2023-05-20T10:32:31;27.10;1.00
20291;DHT22;10304;51.074;13.754;2023-05-20T10:35:03;27.30;1.00
20291;DHT22;10304;51.074;13.754;2023-05-20T10:37:42;27.50;1.00
20291;DHT22;10304;51.074;13.754;2023-05-20T10:40:11;27.60;1.00
20291;DHT22;10304;51.074;13.754;2023-05-20T10:42:38;27.90;1.00
20291;DHT22;10304;51.074;13.754;2023-05-20T10:45:06;28.10;1.00
20291;DHT22;10304;51.074;13.754;2023-05-20T10:47:34;28.30;1.00
20291;DHT22;10304;51.074;13.754;2023-05-20T10:50:02;28.40;1.00
20291;DHT22;10304;51.074;13.754;2023-05-20T10:52:37;28.60;1.00
20291;DHT22;10304;51.074;13.754;2023-05-20T10:55:04;28.80;1.00
20291;DHT22;10304;51.074;13.754;2023-05-20T10:57:33;29.00;1.00
20291;DHT22;10304;51.074;13.754;2023-05-20T11:00:00;29.10;1.00
20291;DHT22;10304;51.074;13.754;2023-05-20T11:02:27;29.40;1.00
20291;DHT22;10304;51.074;13.754;2023-05-20T11:04:58;29.50;1.00
20291;DHT22;10304;51.074;13.754;2023-05-20T11:07:28;29.60;1.00
20291;DHT22;10304;51.074;13.754;2023-05-20T11:09:59;29.80;1.00
20291;DHT22;10304;51.074;13.754;2023-05-20T11:12:27;29.90;1.00
20291;DHT22;10304;51.074;13.754;2023-05-20T11:14:53;30.00;1.00
20291;DHT22;10304;51.074;13.754;2023-05-20T11:17:20;30.10;1.00
20291;DHT22;10304;51.074;13.754;2023-05-20T11:19:47;30.10;1.00
20291;DHT22;10304;51.074;13.754;2023-05-20T11:22:14;30.20;1.00
20291;DHT22;10304;51.074;13.754;2023-05-20T11:24:41;30.30;1.00
20291;DHT22;10304;51.074;13.754;2023-05-20T11:27:08;30.30;1.00
20291;DHT22;10304;51.074;13.754;2023-05-20T11:29:35;30.40;1.00
20291;DHT22;10304;51.074;13.754;2023-05-20T11:32:02;30.50;1.00
20291;DHT22;10304;51.074;13.754;2023-05-20T11:34:36;30.60;1.00
20291;DHT22;10304;51.074;13.754;2023-05-20T11:37:07;30.70;1.00
20291;DHT22;10304;51.074;13.754;2023-05-20T11:39:35;30.70;1.00
20291;DHT22;10304;51.074;13.754;2023-05-20T11:42:02;30.90;1.00
20291;DHT22;10304;51.074;13.754;2023-05-20T11:44:29;31.00;1.00
20291;DHT22;10304;51.074;13.754;2023-05-20T11:47:01;31.10;1.00
20291;DHT22;10304;51.074;13.754;2023-05-20T11:49:28;31.20;1.00
20291;DHT22;10304;51.074;13.754;2023-05-20T11:51:56;31.30;1.00
20291;DHT22;10304;51.074;13.754;2023-05-20T11:54:24;31.60;1.00
20291;DHT22;10304;51.074;13.754;2023-05-20T11:56:53;31.60;1.00
20291;DHT22;10304;51.074;13.754;2023-05-20T11:59:23;31.80;1.00
20291;DHT22;10304;51.074;13.754;2023-05-20T12:01:49;31.90;1.00
20291;DHT22;10304;51.074;13.754;2023-05-20T12:04:16;32.00;1.00
20291;DHT22;10304;51.074;13.754;2023-05-20T12:06:44;32.20;1.00
20291;DHT22;10304;51.074;13.754;2023-05-20T12:09:11;32.40;1.00
20291;DHT22;10304;51.074;13.754;2023-05-20T12:11:39;32.50;1.00
20291;DHT22;10304;51.074;13.754;2023-05-20T12:14:07;32.60;1.00
20291;DHT22;10304;51.074;13.754;2023-05-20T12:16:36;32.70;1.00
20291;DHT22;10304;51.074;13.754;2023-05-20T12:19:03;32.90;1.00
20291;DHT22;10304;51.074;13.754;2023-05-20T12:21:30;33.00;1.00
20291;DHT22;10304;51.074;13.754;2023-05-20T12:24:00;33.00;1.00
20291;DHT22;10304;51.074;13.754;2023-05-20T12:26:28;33.20;1.00
20291;DHT22;10304;51.074;13.754;2023-05-20T12:28:56;33.40;1.00
20291;DHT22;10304;51.074;13.754;2023-05-20T12:31:23;33.50;1.00
20291;DHT22;10304;51.074;13.754;2023-05-20T12:33:51;33.70;1.00
20291;DHT22;10304;51.074;13.754;2023-05-20T12:36:17;33.90;1.00
20291;DHT22;10304;51.074;13.754;2023-05-20T12:38:45;34.00;1.00
20291;DHT22;10304;51.074;13.754;2023-05-20T12:41:12;34.20;1.00
20291;DHT22;10304;51.074;13.754;2023-05-20T12:43:39;34.30;1.00
20291;DHT22;10304;51.074;13.754;2023-05-20T12:46:06;34.50;1.00
20291;DHT22;10304;51.074;13.754;2023-05-20T12:48:32;34.60;1.00
20291;DHT22;10304;51.074;13.754;2023-05-20T12:50:59;34.70;1.00
20291;DHT22;10304;51.074;13.754;2023-05-20T12:53:26;34.90;1.00
20291;DHT22;10304;51.074;13.754;2023-05-20T12:55:53;35.00;1.00
20291;DHT22;10304;51.074;13.754;2023-05-20T12:58:20;35.10;1.00
20291;DHT22;10304;51.074;13.754;2023-05-20T13:00:47;35.20;1.00
20291;DHT22;10304;51.074;13.754;2023-05-20T13:03:14;35.30;1.00
20291;DHT22;10304;51.074;13.754;2023-05-20T13:05:41;35.20;1.00
20291;DHT22;10304;51.074;13.754;2023-05-20T13:08:07;35.10;1.00
20291;DHT22;10304;51.074;13.754;2023-05-20T13:10:35;34.80;1.00
20291;DHT22;10304;51.074;13.754;2023-05-20T13:13:03;34.60;1.00
20291;DHT22;10304;51.074;13.754;2023-05-20T13:15:30;34.50;1.00
20291;DHT22;10304;51.074;13.754;2023-05-20T13:17:59;34.40;1.00
20291;DHT22;10304;51.074;13.754;2023-05-20T13:20:28;34.40;1.00
20291;DHT22;10304;51.074;13.754;2023-05-20T13:22:54;34.50;1.00
20291;DHT22;10304;51.074;13.754;2023-05-20T13:25:21;34.50;1.00
20291;DHT22;10304;51.074;13.754;2023-05-20T13:27:48;34.60;1.00
20291;DHT22;10304;51.074;13.754;2023-05-20T13:30:14;34.80;1.00
20291;DHT22;10304;51.074;13.754;2023-05-20T13:32:41;34.90;1.00
20291;DHT22;10304;51.074;13.754;2023-05-20T13:35:08;34.90;1.00
20291;DHT22;10304;51.074;13.754;2023-05-20T13:37:35;35.00;1.00
20291;DHT22;10304;51.074;13.754;2023-05-20T13:40:02;34.90;1.00
20291;DHT22;10304;51.074;13.754;2023-05-20T13:42:28;34.90;1.00
20291;DHT22;10304;51.074;13.754;2023-05-20T13:44:55;34.90;1.00
20291;DHT22;10304;51.074;13.754;2023-05-20T13:47:22;34.90;1.00
20291;DHT22;10304;51.074;13.754;2023-05-20T13:49:50;34.70;1.00
20291;DHT22;10304;51.074;13.754;2023-05-20T13:52:16;34.50;1.00
20291;DHT22;10304;51.074;13.754;2023-05-20T13:54:43;34.40;1.00
20291;DHT22;10304;51.074;13.754;2023-05-20T13:57:12;34.20;1.00
20291;DHT22;10304;51.074;13.754;2023-05-20T13:59:39;34.00;1.00
20291;DHT22;10304;51.074;13.754;2023-05-20T14:02:06;33.60;1.00
20291;DHT22;10304;51.074;13.754;2023-05-20T14:04:33;33.30;1.00
20291;DHT22;10304;51.074;13.754;2023-05-20T14:07:04;33.00;1.00
20291;DHT22;10304;51.074;13.754;2023-05-20T14:09:34;32.40;1.00
20291;DHT22;10304;51.074;13.754;2023-05-20T14:12:02;32.00;1.00
20291;DHT22;10304;51.074;13.754;2023-05-20T14:14:29;31.70;1.00
20291;DHT22;10304;51.074;13.754;2023-05-20T14:16:55;31.40;1.00
20291;DHT22;10304;51.074;13.754;2023-05-20T14:19:22;31.10;1.00
20291;DHT22;10304;51.074;13.754;2023-05-20T14:21:48;30.70;1.00
20291;DHT22;10304;51.074;13.754;2023-05-20T14:24:15;30.50;1.00
20291;DHT22;10304;51.074;13.754;2023-05-20T14:26:42;30.50;1.00
20291;DHT22;10304;51.074;13.754;2023-05-20T14:29:09;30.30;1.00
20291;DHT22;10304;51.074;13.754;2023-05-20T14:31:36;30.20;1.00
20291;DHT22;10304;51.074;13.754;2023-05-20T14:34:04;30.00;1.00
20291;DHT22;10304;51.074;13.754;2023-05-20T14:36:31;29.80;1.00
20291;DHT22;10304;51.074;13.754;2023-05-20T14:38:58;29.50;1.00
20291;DHT22;10304;51.074;13.754;2023-05-20T14:41:25;29.30;1.00
20291;DHT22;10304;51.074;13.754;2023-05-20T14:43:51;29.20;1.00
20291;DHT22;10304;51.074;13.754;2023-05-20T14:46:18;29.10;1.00
20291;DHT22;10304;51.074;13.754;2023-05-20T14:48:45;28.90;1.00
20291;DHT22;10304;51.074;13.754;2023-05-20T14:51:12;28.70;1.00
20291;DHT22;10304;51.074;13.754;2023-05-20T14:53:38;28.50;1.00
20291;DHT22;10304;51.074;13.754;2023-05-20T14:56:05;28.30;1.00
20291;DHT22;10304;51.074;13.754;2023-05-20T14:58:32;28.20;1.00
20291;DHT22;10304;51.074;13.754;2023-05-20T15:00:59;28.10;1.00
20291;DHT22;10304;51.074;13.754;2023-05-20T15:03:25;27.90;1.00
20291;DHT22;10304;51.074;13.754;2023-05-20T15:05:53;27.70;1.00
20291;DHT22;10304;51.074;13.754;2023-05-20T15:08:20;27.70;1.00
20291;DHT22;10304;51.074;13.754;2023-05-20T15:10:47;27.60;1.00
20291;DHT22;10304;51.074;13.754;2023-05-20T15:13:13;27.50;1.00
20291;DHT22;10304;51.074;13.754;2023-05-20T15:15:40;27.30;1.00
20291;DHT22;10304;51.074;13.754;2023-05-20T15:18:07;27.20;1.00
20291;DHT22;10304;51.074;13.754;2023-05-20T15:20:34;27.10;1.00
20291;DHT22;10304;51.074;13.754;2023-05-20T15:23:00;27.00;1.00
20291;DHT22;10304;51.074;13.754;2023-05-20T15:25:27;27.00;1.00
20291;DHT22;10304;51.074;13.754;2023-05-20T15:27:54;27.00;1.00
20291;DHT22;10304;51.074;13.754;2023-05-20T15:30:21;27.00;1.00
20291;DHT22;10304;51.074;13.754;2023-05-20T15:32:48;27.30;1.00
20291;DHT22;10304;51.074;13.754;2023-05-20T15:35:15;27.40;1.00
20291;DHT22;10304;51.074;13.754;2023-05-20T15:37:42;27.40;1.00